Time;durP1;ratioP1;P1;durP2;ratioP2;P2;SDS_P1;SDS_P2;PMS_P1;PMS_P2;Temp;Humidity;BMP_temperature;BMP_pressure;BME280_temperature;BME280_humidity;BME280_pressure;Samples;Min_cycle;Max_cycle;Signal;HPM_P1;HPM_P2
2023/04/10 00:02:23;;;;;;;;;;;;;;;6.92;100.00;101376.28;5063585;28;19936;-77
2023/04/10 00:04:48;;;;;;;;;;;;;;;6.91;100.00;101374.69;5061455;28;19952;-77
2023/04/10 00:07:14;;;;;;;;;;;;;;;6.90;100.00;101367.41;5057354;28;19989;-77
2023/04/10 00:09:40;;;;;;;;;;;;;;;6.89;100.00;101365.78;5057531;28;19917;-77
2023/04/10 00:12:05;;;;;;;;;;;;;;;6.88;100.00;101350.03;5057104;28;19935;-78
2023/04/10 00:14:30;;;;;;;;;;;;;;;6.87;100.00;101354.91;5057205;28;19935;-77
2023/04/10 00:16:56;;;;;;;;;;;;;;;6.83;100.00;101353.38;5056739;28;19912;-76
2023/04/10 00:19:21;;;;;;;;;;;;;;;6.79;100.00;101356.28;5056686;28;19913;-77
2023/04/10 00:21:46;;;;;;;;;;;;;;;6.77;100.00;101350.25;5038495;28;19995;-76
2023/04/10 00:24:12;;;;;;;;;;;;;;;6.73;100.00;101352.38;5056298;28;19912;-77
2023/04/10 00:26:37;;;;;;;;;;;;;;;6.67;100.00;101362.66;5038252;28;20002;-78
2023/04/10 00:29:02;;;;;;;;;;;;;;;6.59;100.00;101350.66;5056720;28;19917;-78
2023/04/10 00:31:28;;;;;;;;;;;;;;;6.50;100.00;101358.97;5056453;28;19913;-78
2023/04/10 00:33:53;;;;;;;;;;;;;;;6.40;100.00;101351.47;5056294;28;19952;-76
2023/04/10 00:36:19;;;;;;;;;;;;;;;6.30;100.00;101354.53;5056056;28;20374;-76
2023/04/10 00:38:44;;;;;;;;;;;;;;;6.22;100.00;101354.69;5037952;28;19917;-76
2023/04/10 00:41:10;;;;;;;;;;;;;;;6.19;100.00;101352.69;5037977;28;19913;-77
2023/04/10 00:43:35;;;;;;;;;;;;;;;6.16;100.00;101350.75;5037648;28;19917;-76
2023/04/10 00:46:00;;;;;;;;;;;;;;;6.11;100.00;101351.25;5021350;28;20015;-78
2023/04/10 00:48:26;;;;;;;;;;;;;;;6.06;100.00;101346.09;5055930;28;19920;-77
2023/04/10 00:50:51;;;;;;;;;;;;;;;6.00;100.00;101341.34;5021294;28;19924;-78
2023/04/10 00:53:16;;;;;;;;;;;;;;;5.95;100.00;101344.69;5038062;28;19958;-78
2023/04/10 00:55:42;;;;;;;;;;;;;;;5.89;100.00;101347.25;5055737;28;19932;-77
2023/04/10 00:58:07;;;;;;;;;;;;;;;5.83;100.00;101351.81;5056033;28;19920;-77
2023/04/10 01:00:32;;;;;;;;;;;;;;;5.76;100.00;101354.78;5055596;28;19918;-78
2023/04/10 01:03:00;;;;;;;;;;;;;;;5.71;100.00;101361.75;5037748;28;19913;-78
2023/04/10 01:05:26;;;;;;;;;;;;;;;5.67;100.00;101360.22;5055848;28;19913;-77
2023/04/10 01:07:51;;;;;;;;;;;;;;;5.66;100.00;101362.25;5021324;28;19998;-77
2023/04/10 01:10:17;;;;;;;;;;;;;;;5.67;100.00;101354.56;5055296;28;19987;-76
2023/04/10 01:12:47;;;;;;;;;;;;;;;5.68;100.00;101354.13;5055501;28;19913;-77
2023/04/10 01:15:15;;;;;;;;;;;;;;;5.68;100.00;101354.13;5037652;28;19920;-77
2023/04/10 01:18:09;;;;;;;;;;;;;;;5.66;100.00;101355.78;5037531;28;20007;-77
2023/04/10 01:20:38;;;;;;;;;;;;;;;5.64;100.00;101364.75;5046009;28;19913;-77
2023/04/10 01:23:21;;;;;;;;;;;;;;;5.64;100.00;101359.06;5036616;28;19995;-77
2023/04/10 01:25:55;;;;;;;;;;;;;;;5.65;100.00;101357.81;5055290;28;19912;-78
2023/04/10 01:28:23;;;;;;;;;;;;;;;5.67;100.00;101358.19;5020553;28;19919;-77
2023/04/10 01:30:54;;;;;;;;;;;;;;;5.68;100.00;101362.63;5037618;28;19917;-78
2023/04/10 01:33:20;;;;;;;;;;;;;;;5.68;100.00;101367.50;5055864;28;19948;-78
2023/04/10 01:35:47;;;;;;;;;;;;;;;5.66;100.00;101364.28;5055536;28;19975;-78
2023/04/10 01:38:12;;;;;;;;;;;;;;;5.64;100.00;101356.25;5037921;28;20261;-78
2023/04/10 01:40:38;;;;;;;;;;;;;;;5.62;100.00;101352.22;5055116;28;20358;-79
2023/04/10 01:43:04;;;;;;;;;;;;;;;5.60;100.00;101364.00;5055288;28;19939;-78
2023/04/10 01:45:30;;;;;;;;;;;;;;;5.57;100.00;101362.03;5033265;28;19927;-78
2023/04/10 01:47:55;;;;;;;;;;;;;;;5.55;100.00;101352.38;5033508;28;20012;-77
2023/04/10 01:50:23;;;;;;;;;;;;;;;5.54;100.00;101348.72;5033758;28;20381;-77
2023/04/10 01:52:49;;;;;;;;;;;;;;;5.50;100.00;101355.69;5033508;28;20315;-78
2023/04/10 01:55:14;;;;;;;;;;;;;;;5.52;100.00;101361.72;5033478;28;19920;-76
2023/04/10 01:57:40;;;;;;;;;;;;;;;5.54;100.00;101362.91;5033634;28;19913;-76
2023/04/10 02:00:05;;;;;;;;;;;;;;;5.56;100.00;101359.63;5034179;28;20333;-77
2023/04/10 02:02:31;;;;;;;;;;;;;;;5.61;100.00;101365.59;5036014;28;19913;-77
2023/04/10 02:04:56;;;;;;;;;;;;;;;5.66;100.00;101369.97;5034083;28;19913;-77
2023/04/10 02:07:25;;;;;;;;;;;;;;;5.68;100.00;101368.31;5034651;28;19913;-77
2023/04/10 02:09:56;;;;;;;;;;;;;;;5.69;100.00;101364.25;5033283;28;19917;-78
2023/04/10 02:12:23;;;;;;;;;;;;;;;5.67;100.00;101368.75;5016727;28;20305;-78
2023/04/10 02:14:48;;;;;;;;;;;;;;;5.66;100.00;101358.63;5032855;28;19963;-77
2023/04/10 02:17:14;;;;;;;;;;;;;;;5.61;100.00;101365.59;5033172;28;19917;-77
2023/04/10 02:19:39;;;;;;;;;;;;;;;5.55;100.00;101363.72;5033263;28;20359;-78
2023/04/10 02:22:05;;;;;;;;;;;;;;;5.45;100.00;101362.63;5033065;28;19913;-78
2023/04/10 02:24:31;;;;;;;;;;;;;;;5.40;100.00;101362.34;5034806;28;19966;-76
2023/04/10 02:26:56;;;;;;;;;;;;;;;5.33;100.00;101368.94;5037820;28;20347;-78
2023/04/10 02:29:22;;;;;;;;;;;;;;;5.26;100.00;101369.03;5037457;28;19937;-79
2023/04/10 02:31:47;;;;;;;;;;;;;;;5.19;100.00;101369.97;5043861;28;19913;-80
2023/04/10 02:34:12;;;;;;;;;;;;;;;5.16;100.00;101378.50;5043485;28;20004;-78
2023/04/10 02:36:38;;;;;;;;;;;;;;;5.11;100.00;101370.50;5044353;28;19923;-78
2023/04/10 02:39:04;;;;;;;;;;;;;;;5.09;100.00;101372.97;5044053;28;19996;-77
2023/04/10 02:41:29;;;;;;;;;;;;;;;5.04;100.00;101376.31;5043956;28;19925;-79
2023/04/10 02:43:55;;;;;;;;;;;;;;;5.02;100.00;101373.88;5040756;28;19928;-77
2023/04/10 02:46:20;;;;;;;;;;;;;;;5.01;100.00;101375.09;5054215;28;20022;-75
2023/04/10 02:48:46;;;;;;;;;;;;;;;5.00;100.00;101375.56;5054602;28;20020;-76
2023/04/10 02:51:11;;;;;;;;;;;;;;;4.97;100.00;101374.38;5054108;28;19917;-76
2023/04/10 02:53:37;;;;;;;;;;;;;;;4.93;100.00;101370.78;5019932;28;20023;-75
2023/04/10 02:56:02;;;;;;;;;;;;;;;4.92;100.00;101367.16;5019574;28;20436;-77
2023/04/10 02:58:29;;;;;;;;;;;;;;;4.90;100.00;101366.81;5053881;28;19919;-78
2023/04/10 03:00:55;;;;;;;;;;;;;;;4.88;100.00;101369.25;5035756;28;19955;-78
2023/04/10 03:03:20;;;;;;;;;;;;;;;4.88;100.00;101369.25;5054149;28;20338;-74
2023/04/10 03:05:47;;;;;;;;;;;;;;;4.83;100.00;101371.75;5035872;28;19952;-78
2023/04/10 03:08:12;;;;;;;;;;;;;;;4.76;100.00;101369.81;5053343;28;20321;-78
2023/04/10 03:10:38;;;;;;;;;;;;;;;4.71;100.00;101367.47;5053297;28;19917;-79
2023/04/10 03:13:03;;;;;;;;;;;;;;;4.66;100.00;101370.78;5053443;28;19924;-77
2023/04/10 03:15:28;;;;;;;;;;;;;;;4.61;100.00;101370.47;5035515;28;19967;-78
2023/04/10 03:17:53;;;;;;;;;;;;;;;4.57;100.00;101373.34;5053372;28;20350;-78
2023/04/10 03:20:19;;;;;;;;;;;;;;;4.48;100.00;101365.38;5035380;28;20030;-77
2023/04/10 03:22:44;;;;;;;;;;;;;;;4.45;100.00;101371.91;5053221;28;19912;-79
2023/04/10 03:25:10;;;;;;;;;;;;;;;4.38;100.00;101374.00;5053395;28;19913;-77
2023/04/10 03:27:35;;;;;;;;;;;;;;;4.30;100.00;101378.97;5053385;28;19913;-76
2023/04/10 03:30:01;;;;;;;;;;;;;;;4.25;100.00;101379.44;5053060;28;19956;-77
2023/04/10 03:32:29;;;;;;;;;;;;;;;4.23;100.00;101378.22;5053572;28;19913;-78
2023/04/10 03:34:55;;;;;;;;;;;;;;;4.19;100.00;101372.63;5053040;28;19916;-77
2023/04/10 03:37:20;;;;;;;;;;;;;;;4.21;100.00;101375.03;5053155;28;19967;-78
2023/04/10 03:39:45;;;;;;;;;;;;;;;4.23;100.00;101378.22;5053299;28;19913;-78
2023/04/10 03:42:11;;;;;;;;;;;;;;;4.26;100.00;101369.72;5053545;28;19920;-77
2023/04/10 03:44:36;;;;;;;;;;;;;;;4.34;100.00;101376.09;5015199;28;19927;-77
2023/04/10 03:47:02;;;;;;;;;;;;;;;4.41;100.00;101376.00;5033662;28;19966;-76
2023/04/10 03:49:27;;;;;;;;;;;;;;;4.48;100.00;101379.53;5019450;28;19952;-77
2023/04/10 03:51:52;;;;;;;;;;;;;;;4.57;100.00;101366.88;5038061;28;20338;-79
2023/04/10 03:54:17;;;;;;;;;;;;;;;4.62;100.00;101372.06;5037893;28;20000;-76
2023/04/10 03:56:43;;;;;;;;;;;;;;;4.67;100.00;101372.38;5036313;28;20282;-77
2023/04/10 03:59:08;;;;;;;;;;;;;;;4.73;100.00;101376.34;5035764;28;20009;-76
2023/04/10 04:01:33;;;;;;;;;;;;;;;4.79;100.00;101363.31;5019403;28;20231;-78
2023/04/10 04:03:58;;;;;;;;;;;;;;;4.83;100.00;101372.56;5037105;28;19920;-79
2023/04/10 04:06:26;;;;;;;;;;;;;;;4.86;100.00;101373.72;5035702;28;20259;-78
2023/04/10 04:08:51;;;;;;;;;;;;;;;4.89;100.00;101379.34;5036985;28;20004;-78
2023/04/10 04:11:16;;;;;;;;;;;;;;;4.96;100.00;101386.16;5035604;28;20008;-77
2023/04/10 04:13:41;;;;;;;;;;;;;;;5.02;100.00;101384.41;5035630;28;20000;-78
2023/04/10 04:16:07;;;;;;;;;;;;;;;5.08;100.00;101382.72;5036945;28;19913;-77
2023/04/10 04:18:32;;;;;;;;;;;;;;;5.13;100.00;101385.06;5038906;28;19936;-76
2023/04/10 04:20:58;;;;;;;;;;;;;;;5.17;100.00;101388.63;5046110;28;19914;-77
2023/04/10 04:23:23;;;;;;;;;;;;;;;5.22;100.00;101390.97;5044123;28;20262;-77
2023/04/10 04:25:51;;;;;;;;;;;;;;;5.24;100.00;101388.53;5045486;28;19962;-78
2023/04/10 04:28:17;;;;;;;;;;;;;;;5.28;100.00;101397.75;5047573;28;19924;-76
2023/04/10 04:30:42;;;;;;;;;;;;;;;5.33;100.00;101389.56;5050455;28;19917;-77
2023/04/10 04:33:07;;;;;;;;;;;;;;;5.39;100.00;101389.91;5021091;28;19971;-76
2023/04/10 04:35:32;;;;;;;;;;;;;;;5.46;100.00;101386.91;5019291;28;19913;-77
2023/04/10 04:37:58;;;;;;;;;;;;;;;5.50;100.00;101381.22;5035379;28;20019;-78
2023/04/10 04:40:23;;;;;;;;;;;;;;;5.46;100.00;101389.75;5036436;28;19921;-79
2023/04/10 04:42:48;;;;;;;;;;;;;;;5.45;100.00;101381.72;5036213;28;20326;-78
2023/04/10 04:45:14;;;;;;;;;;;;;;;5.51;100.00;101385.63;5050838;28;19925;-77
2023/04/10 04:47:39;;;;;;;;;;;;;;;5.56;100.00;101387.97;5056333;28;20392;-78
2023/04/10 04:50:05;;;;;;;;;;;;;;;5.62;100.00;101389.06;5056248;28;19970;-78
2023/04/10 04:52:30;;;;;;;;;;;;;;;5.71;100.00;101389.31;5056948;28;20374;-78
2023/04/10 04:54:56;;;;;;;;;;;;;;;5.82;100.00;101396.41;5057073;28;20362;-76
2023/04/10 04:57:21;;;;;;;;;;;;;;;5.94;100.00;101402.69;5055879;28;20003;-75
2023/04/10 04:59:46;;;;;;;;;;;;;;;6.05;100.00;101404.06;5037162;28;19917;-78
2023/04/10 05:02:12;;;;;;;;;;;;;;;6.14;100.00;101404.28;5056008;28;20384;-76
2023/04/10 05:04:37;;;;;;;;;;;;;;;6.22;100.00;101405.75;5055988;28;19920;-77
2023/04/10 05:07:02;;;;;;;;;;;;;;;6.32;100.00;101408.84;5037974;28;19924;-79
2023/04/10 05:09:27;;;;;;;;;;;;;;;6.40;100.00;101404.63;5037702;28;19913;-77
2023/04/10 05:11:53;;;;;;;;;;;;;;;6.47;100.00;101415.84;5021175;28;20415;-77
2023/04/10 05:14:19;;;;;;;;;;;;;;;6.49;100.00;101408.47;5037871;28;19960;-78
2023/04/10 05:16:44;;;;;;;;;;;;;;;6.54;100.00;101421.34;5055510;28;20423;-77
2023/04/10 05:19:10;;;;;;;;;;;;;;;6.63;100.00;101425.19;5055493;28;19912;-78
2023/04/10 05:21:36;;;;;;;;;;;;;;;6.69;100.00;101434.00;5055695;28;19978;-76
2023/04/10 05:24:01;;;;;;;;;;;;;;;6.78;100.00;101436.28;5055399;28;19913;-78
2023/04/10 05:26:27;;;;;;;;;;;;;;;6.84;100.00;101448.72;5055465;28;19913;-79
2023/04/10 05:28:52;;;;;;;;;;;;;;;6.85;100.00;101444.63;5037647;28;19917;-78
2023/04/10 05:31:17;;;;;;;;;;;;;;;6.88;100.00;101443.78;5055395;28;20284;-77
2023/04/10 05:33:42;;;;;;;;;;;;;;;6.91;100.00;101445.72;5055183;28;19958;-78
2023/04/10 05:36:09;;;;;;;;;;;;;;;6.95;100.00;101457.81;5037200;28;19919;-76
2023/04/10 05:38:34;;;;;;;;;;;;;;;7.00;100.00;101455.25;5055170;28;20003;-77
2023/04/10 05:40:59;;;;;;;;;;;;;;;7.06;100.00;101449.84;5055315;28;20019;-77
2023/04/10 05:43:25;;;;;;;;;;;;;;;7.14;100.00;101464.69;5054875;28;19913;-76
2023/04/10 05:45:50;;;;;;;;;;;;;;;7.24;100.00;101467.28;5055259;28;19921;-78
2023/04/10 05:48:16;;;;;;;;;;;;;;;7.32;100.00;101463.06;5037216;28;19913;-80
2023/04/10 05:50:41;;;;;;;;;;;;;;;7.39;100.00;101453.53;5054860;28;20366;-77
2023/04/10 05:53:09;;;;;;;;;;;;;;;7.45;100.00;101461.09;5037012;28;20285;-78
2023/04/10 05:55:34;;;;;;;;;;;;;;;7.54;100.00;101457.63;5036956;28;20337;-77
2023/04/10 05:58:00;;;;;;;;;;;;;;;7.60;100.00;101455.88;5054960;28;19996;-78
2023/04/10 06:00:25;;;;;;;;;;;;;;;7.63;100.00;101460.66;5055058;28;19974;-79
2023/04/10 06:02:50;;;;;;;;;;;;;;;7.70;100.00;101454.78;5054581;28;19913;-78
2023/04/10 06:05:16;;;;;;;;;;;;;;;7.76;100.00;101444.50;5054533;28;19913;-77
2023/04/10 06:07:41;;;;;;;;;;;;;;;7.75;100.00;101448.56;5055065;28;20435;-78
2023/04/10 06:10:07;;;;;;;;;;;;;;;7.81;100.00;101446.00;5053978;28;19923;-77
2023/04/10 06:12:32;;;;;;;;;;;;;;;7.93;100.00;101442.41;5054206;28;20388;-78
2023/04/10 06:14:57;;;;;;;;;;;;;;;8.01;100.00;101443.84;5054750;28;20465;-78
2023/04/10 06:17:24;;;;;;;;;;;;;;;8.16;100.00;101444.28;5054499;28;19913;-78
2023/04/10 06:19:49;;;;;;;;;;;;;;;8.32;100.00;101439.31;5054522;28;19920;-78
2023/04/10 06:22:15;;;;;;;;;;;;;;;8.48;100.00;101438.47;5054245;28;19960;-76
2023/04/10 06:24:40;;;;;;;;;;;;;;;8.65;100.00;101437.16;5054339;28;19948;-78
2023/04/10 06:27:05;;;;;;;;;;;;;;;8.78;100.00;101440.03;5054209;28;19919;-77
2023/04/10 06:29:31;;;;;;;;;;;;;;;8.92;100.00;101445.31;5054095;28;19912;-77
2023/04/10 06:31:56;;;;;;;;;;;;;;;9.00;100.00;101437.34;5036165;28;19913;-77
2023/04/10 06:34:21;;;;;;;;;;;;;;;9.09;100.00;101443.16;5054093;28;19923;-78
2023/04/10 06:36:46;;;;;;;;;;;;;;;9.19;100.00;101436.34;5054017;28;19913;-78
2023/04/10 06:39:12;;;;;;;;;;;;;;;9.32;100.00;101439.19;5054010;28;20250;-79
2023/04/10 06:41:37;;;;;;;;;;;;;;;9.46;100.00;101436.66;5035997;28;19912;-78
2023/04/10 06:44:02;;;;;;;;;;;;;;;9.61;100.00;101439.84;5054010;28;20012;-78
2023/04/10 06:46:27;;;;;;;;;;;;;;;9.72;100.00;101445.19;5053679;28;20373;-77
2023/04/10 06:48:53;;;;;;;;;;;;;;;9.82;100.00;101453.44;5035953;28;19913;-77
2023/04/10 06:51:18;;;;;;;;;;;;;;;9.85;100.00;101448.84;5035927;28;19917;-79
2023/04/10 06:53:43;;;;;;;;;;;;;;;9.89;100.00;101450.31;5036089;28;20419;-79
2023/04/10 06:56:09;;;;;;;;;;;;;;;9.90;100.00;101457.63;5053778;28;19913;-78
2023/04/10 06:58:34;;;;;;;;;;;;;;;9.86;100.00;101465.53;5054500;28;19921;-75
2023/04/10 07:01:03;;;;;;;;;;;;;;;9.84;100.00;101459.47;5054618;28;19935;-79
2023/04/10 07:03:28;;;;;;;;;;;;;;;9.88;100.00;101462.22;5054093;28;19985;-76
2023/04/10 07:05:53;;;;;;;;;;;;;;;9.85;100.00;101466.78;5054259;28;19972;-76
2023/04/10 07:08:19;;;;;;;;;;;;;;;9.89;100.00;101455.25;5053382;28;19917;-78
2023/04/10 07:10:44;;;;;;;;;;;;;;;9.95;100.00;101459.91;5053119;28;19923;-79
2023/04/10 07:13:09;;;;;;;;;;;;;;;9.94;100.00;101461.16;5035675;28;19913;-80
2023/04/10 07:15:35;;;;;;;;;;;;;;;9.99;100.00;101457.72;5035571;28;19913;-79
2023/04/10 07:18:00;;;;;;;;;;;;;;;10.13;100.00;101456.44;5053645;28;20011;-77
2023/04/10 07:20:26;;;;;;;;;;;;;;;10.28;100.00;101456.72;5053325;28;19913;-79
2023/04/10 07:22:52;;;;;;;;;;;;;;;10.43;100.00;101455.72;5052881;28;19913;-78
2023/04/10 07:25:17;;;;;;;;;;;;;;;10.55;100.00;101451.22;5053203;28;20342;-78
2023/04/10 07:27:42;;;;;;;;;;;;;;;10.75;100.00;101456.63;5053232;28;20007;-78
2023/04/10 07:30:08;;;;;;;;;;;;;;;10.92;100.00;101461.66;5035615;28;19925;-79
2023/04/10 07:32:33;;;;;;;;;;;;;;;11.05;100.00;101461.56;5053526;28;20013;-77
2023/04/10 07:34:59;;;;;;;;;;;;;;;11.17;100.00;101449.25;5053086;28;19967;-78
2023/04/10 07:37:24;;;;;;;;;;;;;;;11.33;100.00;101453.94;5035687;28;19916;-78
2023/04/10 07:39:50;;;;;;;;;;;;;;;11.49;100.00;101450.84;5035453;28;20372;-78
2023/04/10 07:42:16;;;;;;;;;;;;;;;11.55;100.00;101443.22;5053486;28;19986;-77
2023/04/10 07:44:41;;;;;;;;;;;;;;;11.55;100.00;101439.56;5054516;28;20369;-79
2023/04/10 07:47:06;;;;;;;;;;;;;;;11.57;100.00;101437.81;5055651;28;19966;-76
2023/04/10 07:49:31;;;;;;;;;;;;;;;11.62;100.00;101442.91;5035991;28;19917;-75
2023/04/10 07:51:57;;;;;;;;;;;;;;;11.76;100.00;101430.09;5035547;28;20320;-78
2023/04/10 07:54:22;;;;;;;;;;;;;;;11.90;100.00;101437.28;5053059;28;20015;-79
2023/04/10 07:56:48;;;;;;;;;;;;;;;12.08;100.00;101437.28;5018825;28;20007;-78
2023/04/10 07:59:13;;;;;;;;;;;;;;;12.26;100.00;101435.22;5035484;28;19944;-78
2023/04/10 08:01:39;;;;;;;;;;;;;;;12.51;100.00;101437.00;5053047;28;20425;-78
2023/04/10 08:04:05;;;;;;;;;;;;;;;12.72;100.00;101440.19;5053184;28;19960;-76
2023/04/10 08:06:31;;;;;;;;;;;;;;;12.85;100.00;101438.72;5053101;28;19920;-78
2023/04/10 08:08:56;;;;;;;;;;;;;;;13.10;100.00;101437.53;5053325;28;20001;-77
2023/04/10 08:11:23;;;;;;;;;;;;;;;13.28;100.00;101431.75;5018624;28;19959;-79
2023/04/10 08:13:50;;;;;;;;;;;;;;;13.41;100.00;101431.53;5052757;28;19934;-79
2023/04/10 08:16:15;;;;;;;;;;;;;;;13.66;100.00;101428.25;5053262;28;19916;-77
2023/04/10 08:18:41;;;;;;;;;;;;;;;13.96;100.00;101432.84;5034948;28;19913;-78
2023/04/10 08:21:06;;;;;;;;;;;;;;;14.20;100.00;101426.28;5052957;28;19956;-78
2023/04/10 08:23:31;;;;;;;;;;;;;;;14.61;100.00;101427.41;5052807;28;19920;-80
2023/04/10 08:25:57;;;;;;;;;;;;;;;15.27;100.00;101419.16;5052882;28;19920;-79
2023/04/10 08:28:22;;;;;;;;;;;;;;;15.64;100.00;101425.28;5052960;28;20049;-77
2023/04/10 08:30:48;;;;;;;;;;;;;;;15.74;100.00;101425.94;5035052;28;19967;-78
2023/04/10 08:33:13;;;;;;;;;;;;;;;15.74;100.00;101425.94;5054959;28;19913;-78
2023/04/10 08:35:38;;;;;;;;;;;;;;;15.74;100.00;101423.84;5057049;28;19989;-78
2023/04/10 08:38:03;;;;;;;;;;;;;;;15.70;100.00;101426.16;5057556;28;19917;-78
2023/04/10 08:40:29;;;;;;;;;;;;;;;15.57;100.00;101423.56;5067192;28;19973;-79
2023/04/10 08:42:54;;;;;;;;;;;;;;;15.44;100.00;101416.56;5079765;28;19963;-78
2023/04/10 08:45:20;;;;;;;;;;;;;;;15.37;100.00;101422.72;5078380;28;19943;-79
2023/04/10 08:47:45;;;;;;;;;;;;;;;15.41;100.00;101408.91;5040254;28;19920;-77
2023/04/10 08:50:10;;;;;;;;;;;;;;;15.60;100.00;101418.94;5072548;28;19917;-79
2023/04/10 08:52:36;;;;;;;;;;;;;;;15.85;100.00;101415.38;5070984;28;19913;-77
2023/04/10 08:55:04;;;;;;;;;;;;;;;16.07;100.00;101411.97;5048934;28;19913;-78
2023/04/10 08:57:30;;;;;;;;;;;;;;;16.35;100.00;101406.56;5047946;28;20374;-78
2023/04/10 08:59:55;;;;;;;;;;;;;;;16.48;100.00;101419.31;5040257;28;19912;-77
2023/04/10 09:02:20;;;;;;;;;;;;;;;16.46;100.00;101412.44;5040421;28;20391;-79
2023/04/10 09:04:47;;;;;;;;;;;;;;;16.43;100.00;101417.16;5058074;28;19913;-77
2023/04/10 09:07:12;;;;;;;;;;;;;;;16.32;100.00;101424.88;5057472;28;19913;-79
2023/04/10 09:09:38;;;;;;;;;;;;;;;16.22;100.00;101415.59;5057069;28;19913;-78
2023/04/10 09:12:05;;;;;;;;;;;;;;;16.23;100.00;101416.38;5057190;28;20005;-78
2023/04/10 09:14:31;;;;;;;;;;;;;;;16.16;100.00;101411.03;5056757;28;19913;-80
2023/04/10 09:17:10;;;;;;;;;;;;;;;16.06;100.00;101411.19;5022208;28;19913;-78
2023/04/10 09:19:35;;;;;;;;;;;;;;;15.99;100.00;101402.97;5038581;28;20015;-78
2023/04/10 09:22:01;;;;;;;;;;;;;;;15.98;100.00;101410.03;5021905;28;19960;-78
2023/04/10 09:24:26;;;;;;;;;;;;;;;15.91;100.00;101410.44;5038587;28;19913;-78
2023/04/10 09:26:51;;;;;;;;;;;;;;;15.84;100.00;101396.47;5038397;28;19912;-79
2023/04/10 09:29:17;;;;;;;;;;;;;;;15.88;100.00;101391.28;5038235;28;20023;-79
2023/04/10 09:31:45;;;;;;;;;;;;;;;16.05;100.00;101392.31;5056179;28;19917;-79
2023/04/10 09:34:23;;;;;;;;;;;;;;;16.44;100.00;101389.91;5055956;28;19920;-78
2023/04/10 09:36:54;;;;;;;;;;;;;;;17.16;100.00;101374.56;5038317;28;20377;-77
2023/04/10 09:39:20;;;;;;;;;;;;;;;17.79;100.00;101384.75;5056052;28;19920;-79
2023/04/10 09:41:46;;;;;;;;;;;;;;;18.32;98.83;101386.09;5055848;28;19970;-78
2023/04/10 09:44:11;;;;;;;;;;;;;;;18.71;90.29;101394.06;5054600;28;19921;-78
2023/04/10 09:46:37;;;;;;;;;;;;;;;19.00;90.45;101379.09;5055632;28;19913;-78
2023/04/10 09:49:06;;;;;;;;;;;;;;;19.19;86.38;101383.06;5055537;28;19936;-78
2023/04/10 09:51:32;;;;;;;;;;;;;;;19.27;84.05;101375.41;5055686;28;20370;-80
2023/04/10 09:53:58;;;;;;;;;;;;;;;19.16;78.15;101380.44;5055620;28;19920;-77
2023/04/10 09:56:23;;;;;;;;;;;;;;;18.72;76.29;101378.28;5055513;28;19913;-79
2023/04/10 09:58:49;;;;;;;;;;;;;;;18.28;79.70;101368.13;5055261;28;19913;-79
2023/04/10 10:01:15;;;;;;;;;;;;;;;17.93;81.69;101362.72;5037819;28;19917;-78
2023/04/10 10:03:41;;;;;;;;;;;;;;;17.71;83.77;101359.75;5037732;28;20322;-79
2023/04/10 10:06:06;;;;;;;;;;;;;;;17.53;83.28;101360.16;5055431;28;20342;-78
2023/04/10 10:08:31;;;;;;;;;;;;;;;17.16;82.93;101349.38;5037390;28;19919;-78
2023/04/10 10:10:58;;;;;;;;;;;;;;;16.88;85.87;101354.94;5055476;28;19924;-79
2023/04/10 10:13:26;;;;;;;;;;;;;;;16.70;88.88;101342.97;5054820;28;20018;-78
2023/04/10 10:15:55;;;;;;;;;;;;;;;16.63;89.90;101338.44;5036881;28;19920;-78
2023/04/10 10:18:46;;;;;;;;;;;;;;;16.52;90.82;101329.63;5054675;28;19923;-78
2023/04/10 10:21:12;;;;;;;;;;;;;;;16.55;94.03;101320.75;5034790;28;19913;-79
2023/04/10 10:23:37;;;;;;;;;;;;;;;16.65;92.30;101329.28;5054704;28;19920;-78
2023/04/10 10:26:04;;;;;;;;;;;;;;;16.71;93.15;101315.66;5054901;28;19913;-77
2023/04/10 10:28:29;;;;;;;;;;;;;;;16.82;95.06;101315.75;5054463;28;20013;-78
2023/04/10 10:30:55;;;;;;;;;;;;;;;16.93;95.44;101310.09;5036894;28;19959;-78
2023/04/10 10:33:20;;;;;;;;;;;;;;;16.94;93.59;101321.09;5054487;28;19912;-78
2023/04/10 10:35:45;;;;;;;;;;;;;;;16.91;93.85;101312.69;5054714;28;19917;-78
2023/04/10 10:38:11;;;;;;;;;;;;;;;16.94;94.94;101315.31;5055547;28;19919;-78
2023/04/10 10:40:55;;;;;;;;;;;;;;;16.99;91.21;101308.81;5056975;28;20400;-79
2023/04/10 10:43:23;;;;;;;;;;;;;;;17.05;91.19;101308.06;5056602;28;19966;-77
2023/04/10 10:45:50;;;;;;;;;;;;;;;17.17;90.79;101316.31;5055232;28;20062;-77
2023/04/10 10:48:15;;;;;;;;;;;;;;;17.26;88.93;101307.44;5020591;28;20401;-78
2023/04/10 10:50:50;;;;;;;;;;;;;;;17.30;88.44;101301.41;5054390;28;19924;-77
2023/04/10 10:53:44;;;;;;;;;;;;;;;17.27;89.34;101299.56;5054447;28;20296;-77
2023/04/10 10:56:19;;;;;;;;;;;;;;;17.14;89.25;101294.19;5033723;28;20003;-78
2023/04/10 10:58:45;;;;;;;;;;;;;;;17.11;90.29;101282.91;5053929;28;19912;-78
2023/04/10 11:01:10;;;;;;;;;;;;;;;17.10;90.26;101287.88;5035894;28;19920;-78
2023/04/10 11:03:36;;;;;;;;;;;;;;;17.04;91.56;101284.19;5053880;28;19913;-79
2023/04/10 11:06:08;;;;;;;;;;;;;;;17.01;89.78;101290.19;5019465;28;19912;-79
2023/04/10 11:08:45;;;;;;;;;;;;;;;17.01;90.63;101287.28;5054148;28;19916;-79
2023/04/10 11:11:17;;;;;;;;;;;;;;;16.99;85.51;101293.59;5053786;28;19920;-78
2023/04/10 11:13:49;;;;;;;;;;;;;;;16.85;85.67;101274.31;5035869;28;19913;-78
2023/04/10 11:16:14;;;;;;;;;;;;;;;16.87;88.35;101277.47;5053701;28;19913;-79
2023/04/10 11:18:46;;;;;;;;;;;;;;;16.98;89.92;101272.59;5053575;28;19913;-78
2023/04/10 11:21:11;;;;;;;;;;;;;;;17.07;87.78;101280.25;5053797;28;19912;-79
2023/04/10 11:23:37;;;;;;;;;;;;;;;17.10;86.64;101275.53;5053469;28;20276;-81
2023/04/10 11:26:03;;;;;;;;;;;;;;;17.25;89.30;101259.63;5019281;28;19959;-78
2023/04/10 11:28:31;;;;;;;;;;;;;;;17.47;86.97;101261.06;5035465;28;19952;-79
2023/04/10 11:31:18;;;;;;;;;;;;;;;17.68;85.52;101260.41;5053254;28;20200;-79
2023/04/10 11:33:44;;;;;;;;;;;;;;;17.88;82.70;101261.50;5053301;28;20370;-78
2023/04/10 11:36:10;;;;;;;;;;;;;;;18.08;83.39;101258.41;5053529;28;20361;-77
2023/04/10 11:38:36;;;;;;;;;;;;;;;18.33;81.51;101256.63;5035819;28;19996;-79
2023/04/10 11:41:03;;;;;;;;;;;;;;;18.56;80.36;101255.34;5053501;28;19920;-78
2023/04/10 11:43:28;;;;;;;;;;;;;;;18.77;78.65;101250.06;5053571;28;19912;-79
2023/04/10 11:46:00;;;;;;;;;;;;;;;18.92;75.33;101248.44;5031885;28;19922;-79
2023/04/10 11:48:27;;;;;;;;;;;;;;;19.05;73.23;101248.72;5033451;28;19990;-79
2023/04/10 11:50:52;;;;;;;;;;;;;;;19.18;70.50;101253.97;5032315;28;19917;-78
2023/04/10 11:53:18;;;;;;;;;;;;;;;19.36;71.83;101261.31;5032136;28;19920;-79
2023/04/10 11:55:44;;;;;;;;;;;;;;;19.16;69.44;101256.63;5033866;28;20332;-78
2023/04/10 11:58:22;;;;;;;;;;;;;;;19.05;70.55;101247.91;5033210;28;20423;-77
2023/04/10 12:00:57;;;;;;;;;;;;;;;19.05;70.56;101251.63;5033258;28;19919;-78
2023/04/10 12:03:32;;;;;;;;;;;;;;;19.11;72.78;101240.00;5033215;28;20278;-78
2023/04/10 12:05:58;;;;;;;;;;;;;;;19.23;71.03;101243.69;5033243;28;19914;-77
2023/04/10 12:08:30;;;;;;;;;;;;;;;19.39;71.83;101248.66;5034227;28;19913;-78
2023/04/10 12:10:55;;;;;;;;;;;;;;;19.53;67.20;101242.53;5035839;28;19921;-78
2023/04/10 12:13:27;;;;;;;;;;;;;;;19.44;67.34;101237.03;5037201;28;19920;-78
2023/04/10 12:15:53;;;;;;;;;;;;;;;19.32;68.98;101244.19;5037272;28;20012;-78
2023/04/10 12:18:18;;;;;;;;;;;;;;;19.17;67.63;101248.69;5037290;28;19944;-77
2023/04/10 12:20:43;;;;;;;;;;;;;;;19.10;69.42;101233.44;5037474;28;19920;-79
2023/04/10 12:23:09;;;;;;;;;;;;;;;19.06;66.90;101235.81;5037467;28;20281;-79
2023/04/10 12:25:35;;;;;;;;;;;;;;;18.86;69.84;101223.72;5037181;28;19971;-80
2023/04/10 12:28:00;;;;;;;;;;;;;;;18.72;74.01;101213.22;5036295;28;19920;-79
2023/04/10 12:30:26;;;;;;;;;;;;;;;18.80;74.93;101211.34;5035803;28;19917;-79
2023/04/10 12:32:52;;;;;;;;;;;;;;;19.02;74.60;101220.78;5035708;28;19990;-78